Time;durP1;ratioP1;P1;durP2;ratioP2;P2;SDS_P1;SDS_P2;PMS_P1;PMS_P2;Temp;Humidity;BMP_temperature;BMP_pressure;BME280_temperature;BME280_humidity;BME280_pressure;Samples;Min_cycle;Max_cycle;Signal;HPM_P1;HPM_P2
2021/06/17 00:01:10;;;;;;;10.82;9.27;;;;;;;19.14;69.18;100000.22;5115662;28;20047;-49
2021/06/17 00:03:35;;;;;;;11.68;9.18;;;;;;;19.10;69.20;99996.88;5116470;28;20071;-49
2021/06/17 00:06:01;;;;;;;12.15;9.20;;;;;;;19.07;69.17;99997.06;5116503;28;20112;-49
2021/06/17 00:08:27;;;;;;;11.23;9.88;;;;;;;19.05;69.22;100000.75;5116646;28;20048;-49
2021/06/17 00:10:55;;;;;;;14.23;10.07;;;;;;;19.01;69.47;100008.06;5116198;28;20055;-49
2021/06/17 00:13:23;;;;;;;13.75;10.02;;;;;;;19.01;69.56;100001.88;5116324;28;20051;-49
2021/06/17 00:15:49;;;;;;;12.18;9.35;;;;;;;18.97;69.68;100003.00;5098929;28;20051;-49
2021/06/17 00:18:16;;;;;;;10.65;8.85;;;;;;;18.95;69.81;100003.09;5116178;28;20348;-49
2021/06/17 00:20:42;;;;;;;10.43;8.43;;;;;;;18.92;69.90;100003.25;5116047;28;20081;-49
2021/06/17 00:23:08;;;;;;;11.05;8.55;;;;;;;18.89;69.67;100001.63;5098675;28;20047;-49
2021/06/17 00:25:33;;;;;;;12.80;10.02;;;;;;;18.86;69.75;100000.94;5119632;28;20066;-49
2021/06/17 00:27:59;;;;;;;13.60;9.57;;;;;;;18.81;70.04;100009.16;5120096;28;20043;-49
2021/06/17 00:30:25;;;;;;;9.93;8.38;;;;;;;18.78;69.92;100004.00;5085698;28;20059;-49
2021/06/17 00:32:51;;;;;;;13.52;9.30;;;;;;;18.75;69.97;100005.97;5121056;28;20059;-49
2021/06/17 00:35:17;;;;;;;12.05;9.20;;;;;;;18.71;70.56;99999.09;5119739;28;20047;-49
2021/06/17 00:37:44;;;;;;;11.32;8.75;;;;;;;18.68;70.34;100000.13;5118817;28;20096;-49
2021/06/17 00:40:11;;;;;;;9.20;8.10;;;;;;;18.67;70.38;99999.28;5119162;28;20044;-49
2021/06/17 00:42:38;;;;;;;13.27;10.30;;;;;;;18.64;70.35;99998.59;5119920;28;20043;-49
2021/06/17 00:45:09;;;;;;;15.68;10.35;;;;;;;18.61;70.81;99998.75;5118908;28;20060;-49
2021/06/17 00:47:35;;;;;;;12.40;10.23;;;;;;;18.55;70.81;100001.75;5119758;28;20043;-49
2021/06/17 00:50:01;;;;;;;13.73;9.77;;;;;;;18.51;71.44;100006.38;5119439;28;20043;-49
2021/06/17 00:52:27;;;;;;;9.93;8.45;;;;;;;18.49;71.19;100012.69;5118523;28;20463;-49
2021/06/17 00:54:58;;;;;;;9.40;8.23;;;;;;;18.46;71.27;99997.81;5118556;28;20043;-49
2021/06/17 00:57:24;;;;;;;12.05;8.25;;;;;;;18.41;71.50;99994.56;5119731;28;20415;-49
2021/06/17 00:59:50;;;;;;;12.85;10.48;;;;;;;18.38;71.82;99994.72;5119298;28;20043;-49
2021/06/17 01:02:16;;;;;;;15.55;9.70;;;;;;;18.35;71.80;99989.59;5119281;27;20035;-49
2021/06/17 01:04:41;;;;;;;13.13;9.05;;;;;;;18.33;71.95;99999.41;5119435;28;20062;-49
2021/06/17 01:07:07;;;;;;;15.50;10.10;;;;;;;18.32;71.94;99997.69;5119409;28;20443;-49
2021/06/17 01:09:46;;;;;;;11.10;8.30;;;;;;;18.31;72.12;100003.94;5119320;27;20487;-49
2021/06/17 01:12:49;;;;;;;13.75;9.40;;;;;;;18.25;72.60;99998.97;5119508;28;20112;-49
2021/06/17 01:15:19;;;;;;;12.18;8.57;;;;;;;18.12;72.23;99993.47;5119000;28;20058;-49
2021/06/17 01:17:59;;;;;;;14.63;9.10;;;;;;;18.19;72.51;100005.44;5101689;28;20039;-49
2021/06/17 01:20:35;;;;;;;11.70;8.85;;;;;;;18.14;72.30;99997.75;5118315;28;20043;-49
2021/06/17 01:23:19;;;;;;;11.65;9.93;;;;;;;18.12;72.63;99996.97;5117975;28;20051;-49
2021/06/17 01:25:47;;;;;;;11.82;8.93;;;;;;;18.08;72.55;100000.72;5118920;28;20062;-49
2021/06/17 01:28:14;;;;;;;12.07;9.77;;;;;;;18.06;72.55;99999.94;5118094;28;20047;-49
2021/06/17 01:31:02;;;;;;;12.23;9.68;;;;;;;18.05;72.71;100003.53;5118656;28;20205;-49
2021/06/17 01:33:33;;;;;;;11.60;8.85;;;;;;;18.02;72.86;99998.41;5118928;28;20325;-49
2021/06/17 01:36:05;;;;;;;10.40;9.30;;;;;;;18.02;72.93;99995.75;5117547;28;20112;-49
2021/06/17 01:38:32;;;;;;;13.45;9.88;;;;;;;17.97;73.26;100003.06;5101370;28;20064;-49
2021/06/17 01:40:58;;;;;;;11.77;9.15;;;;;;;17.94;72.95;99998.81;5117732;28;20036;-49
2021/06/17 01:43:24;;;;;;;12.95;9.27;;;;;;;17.94;73.15;100000.63;5118383;28;20325;-49
2021/06/17 01:45:50;;;;;;;11.13;9.38;;;;;;;17.92;73.26;99999.81;5117557;28;20036;-49
2021/06/17 01:48:16;;;;;;;12.55;9.45;;;;;;;17.91;73.41;100006.06;5100406;28;20044;-49
2021/06/17 01:50:44;;;;;;;12.77;9.68;;;;;;;17.89;73.17;100000.84;5118504;28;20079;-49
2021/06/17 01:53:11;;;;;;;11.75;9.25;;;;;;;17.87;73.22;99999.19;5117394;28;20424;-49
2021/06/17 01:55:38;;;;;;;13.50;10.43;;;;;;;17.85;73.60;99995.78;5100759;28;20047;-49
2021/06/17 01:58:05;;;;;;;14.35;9.88;;;;;;;17.83;73.50;100003.81;5118728;28;20047;-49
2021/06/17 02:00:31;;;;;;;13.70;9.63;;;;;;;17.80;73.76;100003.09;5100803;28;20055;-49
2021/06/17 02:02:57;;;;;;;11.32;10.15;;;;;;;17.77;73.79;99998.81;5117724;28;20451;-49
2021/06/17 02:05:23;;;;;;;16.05;11.05;;;;;;;17.77;73.75;100003.25;5118017;28;20369;-49
2021/06/17 02:07:49;;;;;;;12.45;10.05;;;;;;;17.75;73.83;99995.38;5117918;28;20100;-49
2021/06/17 02:10:16;;;;;;;14.15;9.65;;;;;;;17.74;73.86;99997.19;5117903;28;20052;-49
2021/06/17 02:12:42;;;;;;;14.18;10.57;;;;;;;17.72;73.93;99999.03;5117260;28;20047;-49
2021/06/17 02:15:08;;;;;;;14.25;10.48;;;;;;;17.69;74.17;99999.19;5117892;27;20039;-49
2021/06/17 02:17:34;;;;;;;14.23;11.20;;;;;;;17.67;74.02;99995.75;5117811;28;20074;-49
2021/06/17 02:19:59;;;;;;;12.88;10.63;;;;;;;17.65;74.17;100007.38;5117127;28;20044;-49
2021/06/17 02:22:27;;;;;;;12.55;10.52;;;;;;;17.63;73.95;100011.88;5117026;28;20130;-49
2021/06/17 02:24:54;;;;;;;12.75;10.20;;;;;;;17.61;74.33;100017.25;5116729;28;20513;-49
2021/06/17 02:27:29;;;;;;;13.20;10.48;;;;;;;17.63;73.96;100014.53;5116826;28;20051;-49
2021/06/17 02:29:57;;;;;;;16.92;10.98;;;;;;;17.57;74.29;100017.50;5116906;28;20040;-49
2021/06/17 02:32:23;;;;;;;12.18;10.02;;;;;;;17.54;74.27;100013.19;5117745;28;20134;-49
2021/06/17 02:34:49;;;;;;;13.13;10.93;;;;;;;17.47;74.27;100009.16;5117643;28;20124;-49
2021/06/17 02:37:17;;;;;;;13.90;11.13;;;;;;;17.43;74.56;100003.16;5099983;28;20382;-49
2021/06/17 02:39:43;;;;;;;15.80;11.77;;;;;;;17.45;74.63;100014.53;5099831;28;20100;-49
2021/06/17 02:42:09;;;;;;;13.85;10.35;;;;;;;17.45;74.62;100017.19;5099763;28;20062;-49
2021/06/17 02:44:35;;;;;;;12.02;10.45;;;;;;;17.38;74.71;100005.16;5099998;28;20044;-49
2021/06/17 02:47:01;;;;;;;15.80;11.40;;;;;;;17.43;74.40;100015.56;5098838;28;20105;-49
2021/06/17 02:49:26;;;;;;;14.88;12.63;;;;;;;17.43;74.93;100012.91;5117333;28;20071;-49
2021/06/17 02:51:52;;;;;;;12.82;10.80;;;;;;;17.41;74.95;100020.91;5116728;28;20047;-49
2021/06/17 02:54:19;;;;;;;14.50;12.15;;;;;;;17.42;74.63;100016.47;5117075;28;20047;-49
2021/06/17 02:57:02;;;;;;;16.00;11.48;;;;;;;17.44;74.66;100011.97;5117307;28;20066;-49
2021/06/17 02:59:33;;;;;;;13.93;11.80;;;;;;;17.44;74.54;100006.66;5116395;28;20039;-49
2021/06/17 03:02:05;;;;;;;12.05;10.75;;;;;;;17.44;74.73;100004.00;5116306;28;20054;-49
2021/06/17 03:04:42;;;;;;;12.88;10.82;;;;;;;17.45;74.98;100005.72;5116594;28;20047;-49
2021/06/17 03:07:08;;;;;;;12.85;10.77;;;;;;;17.41;75.29;100006.81;5100482;28;20043;-49
2021/06/17 03:09:39;;;;;;;14.82;11.23;;;;;;;17.45;75.22;100011.00;5116993;28;20085;-49
2021/06/17 03:12:05;;;;;;;15.85;10.88;;;;;;;17.40;75.35;100002.47;5116505;28;20039;-49
2021/06/17 03:14:33;;;;;;;13.82;11.13;;;;;;;17.47;75.01;100006.50;5116165;28;20067;-49
2021/06/17 03:16:59;;;;;;;14.50;11.15;;;;;;;17.49;75.08;100007.31;5116731;28;20047;-49
2021/06/17 03:19:25;;;;;;;16.23;11.32;;;;;;;17.49;75.30;100004.66;5115818;28;20043;-49
2021/06/17 03:21:53;;;;;;;16.42;11.38;;;;;;;17.52;75.35;100000.06;5116067;28;20108;-49
2021/06/17 03:24:24;;;;;;;16.52;10.60;;;;;;;17.55;75.48;100001.69;5116048;28;20043;-49
2021/06/17 03:26:51;;;;;;;14.65;10.52;;;;;;;17.56;75.65;100011.34;5116493;28;20448;-49
2021/06/17 03:29:17;;;;;;;11.90;10.52;;;;;;;17.61;75.49;100004.00;5116148;28;20040;-49
2021/06/17 03:31:43;;;;;;;15.27;11.23;;;;;;;17.64;75.41;100001.19;5115958;28;20047;-49
2021/06/17 03:34:09;;;;;;;18.35;13.13;;;;;;;17.67;75.60;100001.06;5115661;28;20058;-49
2021/06/17 03:36:35;;;;;;;13.65;11.77;;;;;;;17.70;75.81;100000.91;5098743;28;20036;-49
2021/06/17 03:39:01;;;;;;;17.52;12.18;;;;;;;17.76;75.94;100007.69;5115866;28;20116;-49
2021/06/17 03:41:27;;;;;;;16.55;13.35;;;;;;;17.82;75.63;100009.19;5116076;28;20056;-49
2021/06/17 03:43:53;;;;;;;17.73;13.77;;;;;;;17.85;75.88;100006.38;5098638;28;20410;-49
2021/06/17 03:46:19;;;;;;;16.10;12.95;;;;;;;17.89;75.86;100014.09;5116653;28;20082;-49
2021/06/17 03:48:45;;;;;;;15.25;12.88;;;;;;;17.94;76.22;100011.22;5115755;28;20108;-49
2021/06/17 03:51:12;;;;;;;14.55;12.50;;;;;;;18.03;76.17;100007.19;5116935;28;20043;-49
2021/06/17 03:53:38;;;;;;;21.52;17.17;;;;;;;18.08;76.40;100013.97;5116674;28;20082;-49
2021/06/17 03:56:04;;;;;;;17.45;15.52;;;;;;;18.17;76.28;100012.66;5116609;28;20050;-49
2021/06/17 03:58:30;;;;;;;19.67;14.68;;;;;;;18.31;76.29;100014.56;5100642;28;20047;-49
2021/06/17 04:00:56;;;;;;;17.20;14.10;;;;;;;18.52;76.35;100018.69;5119669;28;20039;-49
2021/06/17 04:03:24;;;;;;;19.42;15.13;;;;;;;18.83;75.92;100017.03;5120702;28;20146;-49
2021/06/17 04:05:50;;;;;;;20.83;13.55;;;;;;;19.11;75.94;100017.19;5120554;28;20054;-49
2021/06/17 04:08:16;;;;;;;16.13;13.32;;;;;;;19.53;74.67;100010.34;5119425;28;20044;-49
2021/06/17 04:10:42;;;;;;;20.58;15.07;;;;;;;19.90;73.57;100009.97;5119624;28;20051;-49
2021/06/17 04:13:08;;;;;;;17.55;13.93;;;;;;;20.22;72.72;100005.34;5119903;28;20331;-49
2021/06/17 04:15:34;;;;;;;15.82;13.30;;;;;;;20.62;72.20;100011.72;5102692;28;20082;-49
2021/06/17 04:18:00;;;;;;;20.63;13.95;;;;;;;21.04;70.61;100001.06;5120386;28;20047;-49
2021/06/17 04:20:33;;;;;;;17.23;13.27;;;;;;;21.50;69.32;100006.88;5119676;28;20043;-49
2021/06/17 04:23:00;;;;;;;18.00;12.95;;;;;;;21.82;67.94;100010.03;5120632;28;20039;-49
2021/06/17 04:25:26;;;;;;;20.73;13.40;;;;;;;22.12;66.68;99996.38;5119244;28;20051;-50
2021/06/17 04:27:56;;;;;;;19.23;15.10;;;;;;;22.50;65.30;99998.19;5118926;28;20062;-49
2021/06/17 04:30:22;;;;;;;19.80;13.20;;;;;;;22.84;64.41;99990.41;5120173;28;20134;-49
2021/06/17 04:32:50;;;;;;;15.55;12.88;;;;;;;23.10;63.66;99994.69;5118956;28;20337;-50
2021/06/17 04:35:17;;;;;;;16.02;11.60;;;;;;;23.56;63.10;99996.63;5120064;28;20047;-50
2021/06/17 04:37:42;;;;;;;17.52;12.45;;;;;;;23.92;61.66;99997.47;5120166;28;20047;-50
2021/06/17 04:40:08;;;;;;;15.07;12.43;;;;;;;24.27;61.10;99999.19;5085304;28;20090;-50
2021/06/17 04:42:34;;;;;;;14.73;12.20;;;;;;;24.62;60.11;99998.22;5119634;28;20048;-50
2021/06/17 04:45:00;;;;;;;13.57;10.98;;;;;;;25.03;59.45;100002.06;5119915;28;20043;-50
2021/06/17 04:47:26;;;;;;;16.67;12.02;;;;;;;25.32;57.71;99992.47;5119745;28;20050;-50
2021/06/17 04:49:52;;;;;;;14.88;12.07;;;;;;;25.53;57.51;99997.00;5118583;28;20040;-50
2021/06/17 04:52:30;;;;;;;16.58;12.23;;;;;;;25.81;55.51;99996.41;5119478;28;20036;-50
2021/06/17 04:54:56;;;;;;;16.30;11.90;;;;;;;26.15;55.59;99995.31;5119129;28;20063;-50
2021/06/17 04:57:22;;;;;;;13.50;11.05;;;;;;;26.32;54.78;99995.53;5119293;28;20373;-50
2021/06/17 04:59:48;;;;;;;13.05;10.02;;;;;;;26.73;54.17;99996.41;5119607;28;20047;-50
2021/06/17 05:02:14;;;;;;;15.38;11.82;;;;;;;26.95;52.89;99997.16;5119207;28;20131;-50
2021/06/17 05:04:39;;;;;;;13.98;10.90;;;;;;;27.13;52.33;100005.38;5119512;28;20052;-50
2021/06/17 05:12:16;;;;;;;14.90;9.93;;;;;;;27.62;51.14;99996.34;5118486;28;20056;-50
2021/06/17 05:14:42;;;;;;;13.80;10.63;;;;;;;27.71;50.60;99998.19;5119279;28;20054;-49
2021/06/17 05:17:08;;;;;;;16.35;10.38;;;;;;;27.82;50.08;99999.03;5119556;28;20044;-50
2021/06/17 05:19:33;;;;;;;12.48;9.50;;;;;;;27.69;49.37;100000.19;5118278;28;20064;-50
2021/06/17 05:21:59;;;;;;;15.10;11.35;;;;;;;27.89;49.55;100008.25;5118799;28;20356;-50
2021/06/17 05:24:26;;;;;;;13.70;9.57;;;;;;;28.02;48.52;99999.88;5119112;27;20059;-50
2021/06/17 05:26:51;;;;;;;12.90;11.10;;;;;;;28.15;48.31;99998.53;5116414;28;20067;-50
2021/06/17 05:29:17;;;;;;;14.65;9.85;;;;;;;28.38;48.18;100007.09;5117019;28;20456;-50
2021/06/17 05:31:43;;;;;;;15.68;9.57;;;;;;;28.51;48.53;100001.41;5116681;28;20058;-49
2021/06/17 05:34:09;;;;;;;12.57;9.55;;;;;;;28.64;47.67;100001.91;5116667;28;20047;-50
2021/06/17 05:36:35;;;;;;;13.18;9.82;;;;;;;28.81;47.53;99994.84;5115679;28;20377;-50
2021/06/17 05:39:00;;;;;;;11.98;9.63;;;;;;;28.99;47.21;99994.03;5116891;28;20048;-49
2021/06/17 05:41:26;;;;;;;13.93;10.48;;;;;;;28.97;46.29;99991.50;5117615;28;20524;-50
2021/06/17 05:43:52;;;;;;;12.40;10.63;;;;;;;28.93;45.88;99990.09;5101047;28;20180;-50
2021/06/17 05:46:18;;;;;;;15.75;10.32;;;;;;;29.02;46.04;99989.22;5118727;28;20443;-49
2021/06/17 05:48:44;;;;;;;13.07;8.90;;;;;;;29.17;47.03;99997.63;5118308;28;20043;-50
2021/06/17 05:51:10;;;;;;;11.73;9.15;;;;;;;29.41;46.24;99993.44;5118305;28;20058;-49
2021/06/17 05:53:36;;;;;;;14.05;9.88;;;;;;;29.68;45.32;99988.00;5118235;28;20043;-50
2021/06/17 05:56:01;;;;;;;12.88;8.05;;;;;;;29.88;45.29;99983.22;5118542;28;20047;-50
2021/06/17 05:58:27;;;;;;;10.77;7.85;;;;;;;30.01;45.30;99985.50;5118261;28;20109;-50
2021/06/17 06:00:53;;;;;;;12.73;8.63;;;;;;;30.27;44.66;99985.53;5118170;28;20036;-50
2021/06/17 06:03:19;;;;;;;13.02;9.00;;;;;;;30.37;43.71;99993.50;5118407;28;20062;-50
2021/06/17 06:05:45;;;;;;;12.80;8.20;;;;;;;30.43;43.63;99985.59;5118229;28;20378;-50
2021/06/17 06:08:11;;;;;;;14.18;9.55;;;;;;;30.43;44.14;99987.44;5117928;28;20473;-50
2021/06/17 06:10:38;;;;;;;11.75;9.88;;;;;;;30.62;43.02;99994.47;5118330;28;20438;-50
2021/06/17 06:13:04;;;;;;;12.68;9.30;;;;;;;30.56;43.08;99987.84;5117985;28;20043;-49
2021/06/17 06:15:33;;;;;;;11.25;8.75;;;;;;;30.73;43.62;99989.59;5118142;28;20056;-49
2021/06/17 06:18:09;;;;;;;13.00;11.15;;;;;;;30.87;41.81;99995.38;5117770;28;20043;-49
2021/06/17 06:20:36;;;;;;;16.52;12.65;;;;;;;30.76;42.38;99996.53;5117989;28;20447;-49
2021/06/17 06:23:02;;;;;;;14.07;10.20;;;;;;;30.85;42.80;99989.31;5116832;28;20481;-50
2021/06/17 06:25:28;;;;;;;8.98;7.47;;;;;;;31.06;43.33;99994.25;5116935;28;20378;-50
2021/06/17 06:27:54;;;;;;;10.85;8.45;;;;;;;31.27;42.87;99994.63;5117613;28;20355;-50
2021/06/17 06:30:20;;;;;;;8.57;7.53;;;;;;;31.41;43.35;100003.97;5117815;28;20055;-50
2021/06/17 06:32:46;;;;;;;11.90;7.90;;;;;;;31.37;41.20;99997.22;5117048;28;20341;-50
2021/06/17 06:35:12;;;;;;;9.23;7.40;;;;;;;31.32;41.57;100005.78;5118038;28;20122;-50
2021/06/17 06:37:38;;;;;;;9.82;6.22;;;;;;;31.30;41.18;100009.69;5117380;28;20035;-50
2021/06/17 06:40:05;;;;;;;8.68;7.65;;;;;;;31.27;41.10;100001.91;5115240;28;20055;-50
2021/06/17 06:42:31;;;;;;;8.85;6.95;;;;;;;31.27;41.85;100005.47;5115633;28;20333;-50
2021/06/17 06:44:57;;;;;;;7.88;6.75;;;;;;;31.48;41.59;100009.56;5116066;28;20109;-50
2021/06/17 06:47:23;;;;;;;12.88;7.97;;;;;;;31.49;39.79;100001.25;5116294;28;20062;-50
2021/06/17 06:49:49;;;;;;;9.80;6.22;;;;;;;31.58;40.44;100005.66;5116354;27;20044;-50
2021/06/17 06:52:15;;;;;;;13.43;7.80;;;;;;;31.55;39.92;100006.00;5116258;28;20039;-50
2021/06/17 06:54:40;;;;;;;12.23;7.03;;;;;;;31.48;40.26;100014.97;5116270;28;20062;-50
2021/06/17 06:57:06;;;;;;;11.20;6.38;;;;;;;31.57;41.50;100020.22;5117041;28;20039;-50
2021/06/17 06:59:32;;;;;;;8.68;6.35;;;;;;;31.82;40.56;100009.38;5116985;28;20054;-50
2021/06/17 07:01:58;;;;;;;8.68;6.57;;;;;;;31.99;39.83;100016.50;5116961;28;20109;-50
2021/06/17 07:04:25;;;;;;;6.47;5.78;;;;;;;32.03;38.24;100015.13;5117400;28;20070;-50
2021/06/17 07:06:51;;;;;;;7.63;5.47;;;;;;;32.05;38.08;100028.50;5116949;28;20192;-50
2021/06/17 07:09:16;;;;;;;9.05;5.60;;;;;;;32.16;37.97;100024.59;5117058;28;20043;-50
2021/06/17 07:11:45;;;;;;;5.40;4.78;;;;;;;32.45;38.78;100019.44;5117165;28;20075;-50
2021/06/17 07:14:11;;;;;;;6.43;4.88;;;;;;;32.67;38.35;100022.41;5117066;28;20063;-50
2021/06/17 07:16:36;;;;;;;8.52;5.30;;;;;;;32.80;38.02;100028.13;5117048;28;20074;-49
2021/06/17 07:19:05;;;;;;;9.18;5.45;;;;;;;32.88;35.78;100027.22;5117009;28;20100;-49
2021/06/17 07:21:31;;;;;;;6.55;4.82;;;;;;;33.13;35.64;100033.41;5116992;28;20066;-51
2021/06/17 07:23:56;;;;;;;6.45;5.05;;;;;;;33.54;35.94;100030.41;5116704;28;20340;-50
2021/06/17 07:26:26;;;;;;;5.80;4.53;;;;;;;33.89;35.72;100027.03;5116445;28;20059;-50
2021/06/17 07:28:52;;;;;;;6.20;5.38;;;;;;;34.11;34.45;100036.19;5116542;28;20051;-50
2021/06/17 07:31:18;;;;;;;6.93;4.63;;;;;;;34.21;33.29;100049.50;5099141;28;20051;-50
2021/06/17 07:33:44;;;;;;;5.13;3.88;;;;;;;34.33;33.39;100053.47;5116427;28;20054;-50
2021/06/17 07:36:12;;;;;;;5.40;4.03;;;;;;;34.37;33.08;100053.94;5116821;28;20051;-50
2021/06/17 07:38:38;;;;;;;7.65;4.00;;;;;;;34.47;32.97;100056.38;5115615;28;20069;-50
2021/06/17 07:41:05;;;;;;;4.97;3.83;;;;;;;34.56;32.85;100056.13;5116772;28;20051;-49
2021/06/17 07:43:30;;;;;;;6.15;4.38;;;;;;;34.74;32.05;100054.88;5115857;28;20051;-50
2021/06/17 07:45:56;;;;;;;6.10;4.05;;;;;;;34.66;31.81;100058.56;5116748;28;20505;-50
2021/06/17 07:48:23;;;;;;;6.70;4.32;;;;;;;34.64;30.33;100056.00;5116600;28;20044;-49
2021/06/17 07:50:48;;;;;;;6.45;3.50;;;;;;;34.37;30.98;100056.66;5116420;28;20467;-50
2021/06/17 07:53:14;;;;;;;9.25;3.75;;;;;;;34.30;30.38;100063.88;5116641;28;20048;-49
2021/06/17 07:55:40;;;;;;;7.05;3.80;;;;;;;34.29;30.59;100060.31;5115759;28;20048;-50
2021/06/17 07:58:06;;;;;;;10.35;3.80;;;;;;;34.31;30.94;100060.09;5116338;28;20358;-50
2021/06/17 08:00:32;;;;;;;4.22;3.13;;;;;;;34.59;31.75;100065.78;5116585;28;20054;-50
2021/06/17 08:02:58;;;;;;;5.13;3.25;;;;;;;34.69;30.62;100057.34;5116234;28;20505;-49
2021/06/17 08:05:24;;;;;;;8.15;3.33;;;;;;;34.71;29.92;100057.97;5115647;28;20051;-50
2021/06/17 08:07:50;;;;;;;6.45;3.88;;;;;;;34.59;29.63;100065.78;5116493;28;20321;-49
2021/06/17 08:10:16;;;;;;;4.55;3.08;;;;;;;34.69;29.44;100060.06;5116690;28;20123;-49
2021/06/17 08:12:41;;;;;;;6.70;2.92;;;;;;;34.70;29.35;100056.28;5116427;28;20062;-50
2021/06/17 08:15:07;;;;;;;5.05;2.90;;;;;;;34.60;29.57;100049.25;5116418;28;20438;-50
2021/06/17 08:17:33;;;;;;;5.93;3.17;;;;;;;34.67;29.23;100050.19;5116415;28;20047;-50
2021/06/17 08:19:59;;;;;;;4.60;3.10;;;;;;;34.82;29.53;100052.91;5116177;28;20100;-49
2021/06/17 08:22:27;;;;;;;8.15;3.40;;;;;;;34.97;28.78;100060.19;5116058;28;20135;-50
2021/06/17 08:24:53;;;;;;;7.10;3.58;;;;;;;34.85;27.97;100052.53;5117156;28;20047;-50
2021/06/17 08:27:20;;;;;;;7.20;3.20;;;;;;;34.67;28.37;100055.63;5116048;28;20055;-49
2021/06/17 08:29:45;;;;;;;4.15;3.20;;;;;;;34.54;29.75;100055.44;5116216;28;20416;-50
2021/06/17 08:32:12;;;;;;;6.20;3.45;;;;;;;34.54;29.35;100057.31;5115913;28;20051;-49
2021/06/17 08:34:37;;;;;;;5.25;3.75;;;;;;;34.48;29.60;100049.88;5116246;28;20044;-50
2021/06/17 08:37:05;;;;;;;3.72;2.97;;;;;;;34.16;28.75;100046.53;5116217;28;20071;-50
2021/06/17 08:39:31;;;;;;;5.80;3.47;;;;;;;34.03;28.81;100052.59;5116116;28;20048;-50
2021/06/17 08:41:57;;;;;;;4.68;3.08;;;;;;;34.11;28.97;100051.66;5116158;28;20094;-50
2021/06/17 08:44:23;;;;;;;6.97;3.22;;;;;;;34.02;29.26;100053.59;5115992;28;20439;-50
2021/06/17 08:46:51;;;;;;;4.78;3.00;;;;;;;34.04;29.60;100051.56;5119868;28;20047;-50
2021/06/17 08:49:21;;;;;;;5.72;2.97;;;;;;;34.21;29.24;100049.50;5119522;28;20089;-50
2021/06/17 08:51:47;;;;;;;4.57;3.28;;;;;;;34.01;29.88;100057.34;5119909;28;20040;-50
2021/06/17 08:54:19;;;;;;;5.45;3.55;;;;;;;34.11;30.10;100062.53;5119711;28;20052;-49
2021/06/17 08:56:47;;;;;;;3.90;2.80;;;;;;;34.25;29.61;100061.69;5118573;28;20356;-50
2021/06/17 08:59:14;;;;;;;3.53;2.50;;;;;;;34.27;29.13;100054.19;5119388;28;20119;-51
2021/06/17 09:01:40;;;;;;;6.22;3.92;;;;;;;34.26;28.76;100057.13;5119233;28;20044;-50
2021/06/17 09:04:26;;;;;;;7.97;3.88;;;;;;;34.17;28.82;100054.47;5117310;28;20035;-50
2021/06/17 09:07:09;;;;;;;4.60;2.90;;;;;;;34.05;29.42;100049.69;5117557;28;20344;-50
2021/06/17 09:09:52;;;;;;;4.68;3.10;;;;;;;34.07;29.25;100040.31;5117124;28;20039;-50
2021/06/17 09:12:22;;;;;;;5.28;2.83;;;;;;;34.18;29.56;100049.88;5117806;28;20043;-50
2021/06/17 09:14:52;;;;;;;6.35;3.50;;;;;;;34.25;29.29;100050.81;5116402;28;20043;-50
2021/06/17 09:17:18;;;;;;;6.50;3.92;;;;;;;34.23;29.47;100055.63;5117576;28;20035;-51
2021/06/17 09:19:48;;;;;;;5.50;3.72;;;;;;;34.08;28.48;100041.16;5118862;28;20048;-50
2021/06/17 09:22:18;;;;;;;4.78;3.17;;;;;;;34.02;28.90;100039.19;5101368;28;20510;-49
2021/06/17 09:24:46;;;;;;;5.07;3.30;;;;;;;34.08;29.23;100038.44;5118839;28;20040;-50
2021/06/17 09:27:22;;;;;;;4.95;3.10;;;;;;;34.24;28.95;100042.88;5118813;28;20055;-50
2021/06/17 09:29:48;;;;;;;6.60;3.45;;;;;;;34.32;29.01;100038.19;5119117;28;20111;-49
2021/06/17 09:32:20;;;;;;;6.82;3.47;;;;;;;34.36;29.29;100052.25;5118664;28;20040;-51
2021/06/17 09:34:46;;;;;;;4.68;3.05;;;;;;;34.23;27.87;100044.75;5118014;28;20075;-50
2021/06/17 09:37:31;;;;;;;10.07;4.03;;;;;;;34.29;29.00;100045.84;5118815;28;20051;-50
2021/06/17 09:39:57;;;;;;;8.80;3.42;;;;;;;34.29;28.44;100044.00;5117796;28;20396;-50
2021/06/17 09:42:30;;;;;;;5.18;3.50;;;;;;;34.26;27.90;100040.81;5118571;28;20046;-50
2021/06/17 09:44:58;;;;;;;5.43;3.25;;;;;;;34.32;28.33;100029.16;5118763;28;20155;-51
2021/06/17 09:47:25;;;;;;;9.13;3.15;;;;;;;34.42;28.77;100035.19;5117838;28;20047;-50
2021/06/17 09:49:51;;;;;;;4.53;3.30;;;;;;;34.46;28.90;100033.78;5118334;28;20040;-50
2021/06/17 09:52:18;;;;;;;3.63;3.25;;;;;;;34.38;29.64;100034.69;5118540;28;20066;-50
2021/06/17 09:54:45;;;;;;;5.50;3.10;;;;;;;34.41;28.64;100028.88;5117611;28;20435;-50
2021/06/17 09:57:12;;;;;;;4.72;3.20;;;;;;;34.36;30.12;100030.50;5117819;28;20444;-50
2021/06/17 09:59:46;;;;;;;4.05;3.55;;;;;;;34.37;29.99;100037.63;5083686;28;20044;-50
2021/06/17 10:02:16;;;;;;;6.88;3.47;;;;;;;34.34;28.98;100036.13;5117373;28;20399;-50
2021/06/17 10:04:42;;;;;;;5.75;3.78;;;;;;;34.30;29.40;100033.97;5118716;28;20089;-50
2021/06/17 10:07:08;;;;;;;9.82;3.72;;;;;;;34.19;29.13;100038.84;5118045;28;20516;-50
2021/06/17 10:09:34;;;;;;;5.20;3.53;;;;;;;34.02;29.91;100020.16;5117026;28;20036;-50
2021/06/17 10:12:00;;;;;;;4.30;3.45;;;;;;;33.81;29.66;100039.88;5117991;28;20044;-50
2021/06/17 10:14:27;;;;;;;5.75;3.30;;;;;;;33.87;28.71;100033.69;5117905;28;20040;-50
2021/06/17 10:16:53;;;;;;;6.20;3.35;;;;;;;33.86;28.23;100030.13;5118089;28;20062;-50
2021/06/17 10:19:19;;;;;;;17.38;11.00;;;;;;;33.87;28.33;100028.28;5118047;28;20356;-50
2021/06/17 10:21:45;;;;;;;62.88;41.95;;;;;;;34.00;29.02;100033.06;5118002;28;20048;-49
2021/06/17 10:24:22;;;;;;;5.30;3.92;;;;;;;34.07;28.40;100020.47;5118100;28;20055;-50
2021/06/17 10:26:50;;;;;;;10.35;7.55;;;;;;;33.90;29.46;100001.59;5117606;28;20055;-49
2021/06/17 10:29:28;;;;;;;42.55;38.90;;;;;;;34.09;29.67;100019.25;5117765;27;20048;-49
2021/06/17 10:31:58;;;;;;;10.10;8.95;;;;;;;34.04;29.32;100016.25;5117836;28;20047;-49
2021/06/17 10:34:29;;;;;;;6.70;3.47;;;;;;;33.87;28.93;100012.81;5117769;28;20477;-49
2021/06/17 10:37:14;;;;;;;4.78;3.50;;;;;;;33.79;27.88;100017.47;5117717;28;20055;-49
2021/06/17 10:40:06;;;;;;;8.02;3.35;;;;;;;33.71;28.90;100008.38;5117329;28;20454;-50
2021/06/17 10:42:33;;;;;;;5.65;3.40;;;;;;;33.69;29.98;100012.28;5116511;28;20058;-49
2021/06/17 10:44:59;;;;;;;3.13;2.83;;;;;;;33.74;30.88;100013.44;5117823;28;20408;-50
2021/06/17 10:47:44;;;;;;;4.03;3.17;;;;;;;33.92;28.63;100004.09;5117326;28;20130;-50
2021/06/17 10:50:11;;;;;;;8.90;3.13;;;;;;;34.06;28.99;99997.03;5116910;28;20044;-50
2021/06/17 10:52:38;;;;;;;5.18;3.33;;;;;;;34.14;29.42;99995.06;5116538;28;20062;-49
2021/06/17 10:55:14;;;;;;;6.55;3.40;;;;;;;34.40;29.24;99993.75;5117320;28;20051;-49
2021/06/17 10:57:44;;;;;;;5.00;2.80;;;;;;;34.45;28.29;99999.47;5116524;28;20364;-49
2021/06/17 11:00:24;;;;;;;3.95;3.25;;;;;;;34.48;28.92;99996.34;5116794;28;20063;-50
2021/06/17 11:03:13;;;;;;;5.28;3.42;;;;;;;34.50;28.04;99985.31;5117230;28;20047;-50
2021/06/17 11:05:41;;;;;;;6.18;3.33;;;;;;;34.54;28.38;99987.47;5095952;28;20066;-49
2021/06/17 11:08:22;;;;;;;5.25;3.40;;;;;;;34.41;28.42;99987.28;5115254;28;20040;-50
2021/06/17 11:11:06;;;;;;;6.03;3.23;;;;;;;34.23;28.29;99995.00;5115522;28;20061;-50
2021/06/17 11:13:42;;;;;;;3.03;2.42;;;;;;;34.20;29.10;99990.75;5115518;28;20043;-50
2021/06/17 11:16:14;;;;;;;3.65;2.85;;;;;;;34.27;28.10;99988.97;5114373;28;20059;-50
2021/06/17 11:21:24;;;;;;;6.10;3.20;;;;;;;34.17;28.58;99986.53;5116692;28;20383;-50
2021/06/17 11:24:13;;;;;;;3.75;2.75;;;;;;;33.97;28.72;99985.38;5116619;28;20348;-50
2021/06/17 11:26:46;;;;;;;3.88;3.03;;;;;;;33.82;29.50;99981.81;5111126;28;20139;-50
2021/06/17 11:29:18;;;;;;;4.15;3.00;;;;;;;33.88;29.46;99984.63;5117016;28;20039;-50
2021/06/17 11:31:53;;;;;;;7.28;2.90;;;;;;;33.89;29.83;99991.72;5116923;28;20059;-50